sensor_id;sensor_type;location;lat;lon;timestamp;pressure;altitude;pressure_sealevel;temperature;humidity
50632;BME280;49583;45.590;-122.498;2022-08-19T00:00:49;100670.02;;;28.08;57.61
50632;BME280;49583;45.590;-122.498;2022-08-19T00:03:04;100663.45;;;28.09;57.73
50632;BME280;49583;45.590;-122.498;2022-08-19T00:05:48;100662.44;;;28.10;56.82
50632;BME280;49583;45.590;-122.498;2022-08-19T00:07:55;100670.94;;;28.10;56.69
50632;BME280;49583;45.590;-122.498;2022-08-19T00:10:19;100684.66;;;28.11;56.52
50632;BME280;49583;45.590;-122.498;2022-08-19T00:15:29;100721.91;;;28.03;56.54
50632;BME280;49583;45.590;-122.498;2022-08-19T00:17:45;100736.23;;;27.93;56.34
50632;BME280;49583;45.590;-122.498;2022-08-19T00:20:03;100729.46;;;27.83;56.16
50632;BME280;49583;45.590;-122.498;2022-08-19T00:22:39;100705.84;;;27.77;56.27
50632;BME280;49583;45.590;-122.498;2022-08-19T00:24:56;100707.37;;;27.75;56.36
50632;BME280;49583;45.590;-122.498;2022-08-19T00:27:06;100719.63;;;27.74;56.39
50632;BME280;49583;45.590;-122.498;2022-08-19T00:29:33;100723.23;;;27.73;56.51
50632;BME280;49583;45.590;-122.498;2022-08-19T00:31:54;100707.31;;;27.70;56.23
50632;BME280;49583;45.590;-122.498;2022-08-19T00:34:12;100696.50;;;27.69;56.24
50632;BME280;49583;45.590;-122.498;2022-08-19T00:36:19;100684.52;;;27.69;56.24
50632;BME280;49583;45.590;-122.498;2022-08-19T00:40:53;100685.25;;;27.69;56.62
50632;BME280;49583;45.590;-122.498;2022-08-19T00:43:08;100692.25;;;27.69;56.47
50632;BME280;49583;45.590;-122.498;2022-08-19T00:45:21;100692.31;;;27.69;56.37
50632;BME280;49583;45.590;-122.498;2022-08-19T00:47:28;100687.41;;;27.69;56.19
50632;BME280;49583;45.590;-122.498;2022-08-19T00:49:38;100678.73;;;27.70;56.13
50632;BME280;49583;45.590;-122.498;2022-08-19T00:52:04;100675.61;;;27.73;56.18
50632;BME280;49583;45.590;-122.498;2022-08-19T00:54:16;100679.55;;;27.75;56.10
50632;BME280;49583;45.590;-122.498;2022-08-19T00:56:38;100689.40;;;27.76;56.03
50632;BME280;49583;45.590;-122.498;2022-08-19T00:59:05;100691.41;;;27.77;56.10
50632;BME280;49583;45.590;-122.498;2022-08-19T01:01:15;100692.61;;;27.78;55.90
50632;BME280;49583;45.590;-122.498;2022-08-19T01:03:26;100698.11;;;27.77;55.63
50632;BME280;49583;45.590;-122.498;2022-08-19T01:06:05;100705.42;;;27.79;55.72
50632;BME280;49583;45.590;-122.498;2022-08-19T01:08:14;100698.48;;;27.79;55.89
50632;BME280;49583;45.590;-122.498;2022-08-19T01:10:26;100697.55;;;27.80;55.65
50632;BME280;49583;45.590;-122.498;2022-08-19T01:12:43;100692.51;;;27.81;55.20
50632;BME280;49583;45.590;-122.498;2022-08-19T01:18:22;100702.73;;;27.82;54.92
50632;BME280;49583;45.590;-122.498;2022-08-19T01:20:53;100693.72;;;27.84;54.68
50632;BME280;49583;45.590;-122.498;2022-08-19T01:23:33;100691.69;;;27.87;54.16
50632;BME280;49583;45.590;-122.498;2022-08-19T01:32:15;100671.60;;;27.91;54.47
50632;BME280;49583;45.590;-122.498;2022-08-19T01:38:00;100638.67;;;27.94;54.72
50632;BME280;49583;45.590;-122.498;2022-08-19T01:40:33;100620.02;;;27.96;54.65
50632;BME280;49583;45.590;-122.498;2022-08-19T01:46:05;100591.05;;;27.98;54.55
50632;BME280;49583;45.590;-122.498;2022-08-19T01:48:52;100605.72;;;27.98;54.62
50632;BME280;49583;45.590;-122.498;2022-08-19T01:53:58;100666.91;;;27.91;54.15
50632;BME280;49583;45.590;-122.498;2022-08-19T01:56:28;100668.07;;;27.81;54.16
50632;BME280;49583;45.590;-122.498;2022-08-19T01:58:51;100665.63;;;27.71;54.34
50632;BME280;49583;45.590;-122.498;2022-08-19T02:01:16;100645.98;;;27.66;54.17
50632;BME280;49583;45.590;-122.498;2022-08-19T02:03:46;100653.69;;;27.65;54.24
50632;BME280;49583;45.590;-122.498;2022-08-19T02:06:04;100674.06;;;27.63;54.23
50632;BME280;49583;45.590;-122.498;2022-08-19T02:08:54;100678.27;;;27.57;54.45
50632;BME280;49583;45.590;-122.498;2022-08-19T02:12:07;100670.84;;;27.51;54.58
50632;BME280;49583;45.590;-122.498;2022-08-19T02:14:16;100661.58;;;27.46;54.53
50632;BME280;49583;45.590;-122.498;2022-08-19T02:16:37;100664.73;;;27.44;54.50
50632;BME280;49583;45.590;-122.498;2022-08-19T02:18:48;100666.60;;;27.43;54.62
50632;BME280;49583;45.590;-122.498;2022-08-19T02:21:10;100657.16;;;27.37;54.61
50632;BME280;49583;45.590;-122.498;2022-08-19T02:23:28;100665.35;;;27.43;54.57
50632;BME280;49583;45.590;-122.498;2022-08-19T02:25:51;100658.27;;;27.43;54.57
50632;BME280;49583;45.590;-122.498;2022-08-19T02:28:22;100651.48;;;27.44;54.48
50632;BME280;49583;45.590;-122.498;2022-08-19T02:31:03;100651.83;;;27.45;54.35
50632;BME280;49583;45.590;-122.498;2022-08-19T02:36:03;100669.27;;;27.45;54.75
50632;BME280;49583;45.590;-122.498;2022-08-19T02:39:00;100660.26;;;27.40;54.89
50632;BME280;49583;45.590;-122.498;2022-08-19T02:41:47;100645.97;;;27.35;54.86
50632;BME280;49583;45.590;-122.498;2022-08-19T02:44:03;100631.80;;;27.28;54.91
50632;BME280;49583;45.590;-122.498;2022-08-19T02:46:58;100638.34;;;27.32;54.81
50632;BME280;49583;45.590;-122.498;2022-08-19T02:49:31;100648.78;;;27.32;54.85
50632;BME280;49583;45.590;-122.498;2022-08-19T02:51:44;100651.56;;;27.33;54.95
50632;BME280;49583;45.590;-122.498;2022-08-19T02:54:33;100654.98;;;27.33;54.88
50632;BME280;49583;45.590;-122.498;2022-08-19T02:57:13;100648.44;;;27.31;55.08
50632;BME280;49583;45.590;-122.498;2022-08-19T03:02:33;100650.38;;;27.29;55.16
50632;BME280;49583;45.590;-122.498;2022-08-19T03:05:15;100646.42;;;27.26;55.24
50632;BME280;49583;45.590;-122.498;2022-08-19T03:08:05;100637.13;;;27.20;55.46
50632;BME280;49583;45.590;-122.498;2022-08-19T03:13:15;100644.59;;;27.12;55.71
50632;BME280;49583;45.590;-122.498;2022-08-19T03:15:44;100642.38;;;27.08;55.73
50632;BME280;49583;45.590;-122.498;2022-08-19T03:17:58;100637.47;;;27.05;55.89
50632;BME280;49583;45.590;-122.498;2022-08-19T03:20:22;100629.32;;;26.99;55.97
50632;BME280;49583;45.590;-122.498;2022-08-19T03:23:42;100637.56;;;26.98;56.05
50632;BME280;49583;45.590;-122.498;2022-08-19T03:25:53;100656.39;;;26.95;56.29
50632;BME280;49583;45.590;-122.498;2022-08-19T03:28:21;100661.49;;;26.91;56.41
50632;BME280;49583;45.590;-122.498;2022-08-19T03:31:04;100658.15;;;26.84;56.45
50632;BME280;49583;45.590;-122.498;2022-08-19T03:33:48;100655.15;;;26.79;56.68
50632;BME280;49583;45.590;-122.498;2022-08-19T03:36:22;100663.54;;;26.75;56.92
50632;BME280;49583;45.590;-122.498;2022-08-19T03:38:44;100677.29;;;26.73;57.26
50632;BME280;49583;45.590;-122.498;2022-08-19T03:41:09;100687.58;;;26.69;57.23
50632;BME280;49583;45.590;-122.498;2022-08-19T03:43:24;100687.73;;;26.66;57.29
50632;BME280;49583;45.590;-122.498;2022-08-19T03:45:48;100689.13;;;26.62;57.43
50632;BME280;49583;45.590;-122.498;2022-08-19T03:48:20;100689.98;;;26.59;57.70
50632;BME280;49583;45.590;-122.498;2022-08-19T03:50:32;100693.00;;;26.54;57.72
50632;BME280;49583;45.590;-122.498;2022-08-19T03:53:12;100693.17;;;26.52;57.99
50632;BME280;49583;45.590;-122.498;2022-08-19T03:56:00;100696.73;;;26.51;57.85
50632;BME280;49583;45.590;-122.498;2022-08-19T03:58:48;100696.06;;;26.50;57.83
50632;BME280;49583;45.590;-122.498;2022-08-19T04:01:08;100697.78;;;26.49;58.03
50632;BME280;49583;45.590;-122.498;2022-08-19T04:03:58;100688.95;;;26.47;57.81
50632;BME280;49583;45.590;-122.498;2022-08-19T04:06:23;100686.23;;;26.49;58.18
50632;BME280;49583;45.590;-122.498;2022-08-19T04:09:41;100689.14;;;26.49;58.16
50632;BME280;49583;45.590;-122.498;2022-08-19T04:18:42;100684.71;;;26.41;58.22
50632;BME280;49583;45.590;-122.498;2022-08-19T04:24:13;100685.30;;;26.35;58.43
50632;BME280;49583;45.590;-122.498;2022-08-19T04:26:30;100693.98;;;26.39;58.42
50632;BME280;49583;45.590;-122.498;2022-08-19T04:28:50;100689.98;;;26.39;58.39
50632;BME280;49583;45.590;-122.498;2022-08-19T04:31:01;100689.91;;;26.38;58.51
50632;BME280;49583;45.590;-122.498;2022-08-19T04:33:12;100694.68;;;26.39;58.53
50632;BME280;49583;45.590;-122.498;2022-08-19T04:35:18;100695.19;;;26.39;58.66
50632;BME280;49583;45.590;-122.498;2022-08-19T04:37:38;100696.09;;;26.38;58.48
50632;BME280;49583;45.590;-122.498;2022-08-19T04:39:48;100698.20;;;26.38;58.56
50632;BME280;49583;45.590;-122.498;2022-08-19T04:42:24;100703.31;;;26.36;58.62
50632;BME280;49583;45.590;-122.498;2022-08-19T04:44:50;100705.86;;;26.35;58.55
50632;BME280;49583;45.590;-122.498;2022-08-19T04:46:58;100712.10;;;26.33;58.86
50632;BME280;49583;45.590;-122.498;2022-08-19T04:49:18;100712.67;;;26.31;58.89
50632;BME280;49583;45.590;-122.498;2022-08-19T04:51:46;100718.78;;;26.29;58.77
50632;BME280;49583;45.590;-122.498;2022-08-19T04:53:56;100720.70;;;26.27;58.76
50632;BME280;49583;45.590;-122.498;2022-08-19T04:56:26;100726.87;;;26.25;59.03
50632;BME280;49583;45.590;-122.498;2022-08-19T04:58:34;100729.98;;;26.22;59.00
50632;BME280;49583;45.590;-122.498;2022-08-19T05:00:41;100730.30;;;26.20;59.20
50632;BME280;49583;45.590;-122.498;2022-08-19T05:02:51;100729.25;;;26.17;59.22
50632;BME280;49583;45.590;-122.498;2022-08-19T05:05:02;100729.00;;;26.15;59.02
50632;BME280;49583;45.590;-122.498;2022-08-19T05:07:13;100730.73;;;26.12;59.21
50632;BME280;49583;45.590;-122.498;2022-08-19T05:09:20;100728.38;;;26.10;59.37
50632;BME280;49583;45.590;-122.498;2022-08-19T05:11:33;100726.09;;;26.08;59.44
50632;BME280;49583;45.590;-122.498;2022-08-19T05:13:47;100723.14;;;26.05;59.46
50632;BME280;49583;45.590;-122.498;2022-08-19T05:15:59;100733.92;;;26.02;59.52
50632;BME280;49583;45.590;-122.498;2022-08-19T05:18:06;100742.69;;;26.00;59.61
50632;BME280;49583;45.590;-122.498;2022-08-19T05:21:29;100743.40;;;25.98;59.61
50632;BME280;49583;45.590;-122.498;2022-08-19T05:23:31;100743.50;;;25.95;59.80
50632;BME280;49583;45.590;-122.498;2022-08-19T05:25:48;100742.30;;;25.92;60.07
50632;BME280;49583;45.590;-122.498;2022-08-19T05:27:57;100737.38;;;25.89;60.12
50632;BME280;49583;45.590;-122.498;2022-08-19T05:30:17;100736.93;;;25.86;60.16
50632;BME280;49583;45.590;-122.498;2022-08-19T05:32:39;100735.80;;;25.82;60.23
50632;BME280;49583;45.590;-122.498;2022-08-19T05:37:19;100746.19;;;25.75;60.36
50632;BME280;49583;45.590;-122.498;2022-08-19T05:42:00;100748.39;;;25.70;60.71
50632;BME280;49583;45.590;-122.498;2022-08-19T05:44:09;100745.83;;;25.68;60.68
50632;BME280;49583;45.590;-122.498;2022-08-19T05:46:22;100740.80;;;25.67;60.70
50632;BME280;49583;45.590;-122.498;2022-08-19T05:48:42;100742.92;;;25.66;60.94
50632;BME280;49583;45.590;-122.498;2022-08-19T05:50:49;100744.90;;;25.65;61.04
50632;BME280;49583;45.590;-122.498;2022-08-19T05:52:59;100743.83;;;25.63;60.98
50632;BME280;49583;45.590;-122.498;2022-08-19T05:55:10;100741.80;;;25.60;61.27
50632;BME280;49583;45.590;-122.498;2022-08-19T05:57:20;100742.06;;;25.57;61.42
50632;BME280;49583;45.590;-122.498;2022-08-19T05:59:27;100740.35;;;25.54;61.53
50632;BME280;49583;45.590;-122.498;2022-08-19T06:01:45;100737.52;;;25.50;61.62
50632;BME280;49583;45.590;-122.498;2022-08-19T06:03:52;100738.44;;;25.49;61.91
50632;BME280;49583;45.590;-122.498;2022-08-19T06:06:04;100739.81;;;25.47;61.81
50632;BME280;49583;45.590;-122.498;2022-08-19T06:08:11;100737.75;;;25.45;61.91
50632;BME280;49583;45.590;-122.498;2022-08-19T06:10:39;100733.59;;;25.43;61.95
50632;BME280;49583;45.590;-122.498;2022-08-19T06:12:45;100734.15;;;25.39;61.97
50632;BME280;49583;45.590;-122.498;2022-08-19T06:14:52;100736.51;;;25.38;62.05
50632;BME280;49583;45.590;-122.498;2022-08-19T06:17:15;100735.39;;;25.35;62.15
50632;BME280;49583;45.590;-122.498;2022-08-19T06:19:31;100732.23;;;25.34;62.21
50632;BME280;49583;45.590;-122.498;2022-08-19T06:21:47;100734.03;;;25.33;62.07
50632;BME280;49583;45.590;-122.498;2022-08-19T06:23:55;100735.48;;;25.32;62.31
50632;BME280;49583;45.590;-122.498;2022-08-19T06:26:03;100738.17;;;25.29;62.36
50632;BME280;49583;45.590;-122.498;2022-08-19T06:28:22;100738.70;;;25.29;62.36
50632;BME280;49583;45.590;-122.498;2022-08-19T06:30:38;100740.55;;;25.26;62.43
50632;BME280;49583;45.590;-122.498;2022-08-19T06:32:50;100736.60;;;25.24;62.63
50632;BME280;49583;45.590;-122.498;2022-08-19T06:35:03;100735.42;;;25.22;62.50
50632;BME280;49583;45.590;-122.498;2022-08-19T06:37:17;100739.45;;;25.19;62.70
50632;BME280;49583;45.590;-122.498;2022-08-19T06:39:29;100739.33;;;25.16;62.58
50632;BME280;49583;45.590;-122.498;2022-08-19T06:41:38;100746.45;;;25.12;62.74
50632;BME280;49583;45.590;-122.498;2022-08-19T06:44:05;100746.66;;;25.10;62.86
50632;BME280;49583;45.590;-122.498;2022-08-19T06:46:21;100749.05;;;25.09;62.87
50632;BME280;49583;45.590;-122.498;2022-08-19T06:48:32;100748.09;;;25.07;63.12
50632;BME280;49583;45.590;-122.498;2022-08-19T06:50:58;100751.27;;;25.03;63.27
50632;BME280;49583;45.590;-122.498;2022-08-19T06:53:08;100755.58;;;24.99;63.48
50632;BME280;49583;45.590;-122.498;2022-08-19T06:57:46;100767.24;;;24.96;63.65
50632;BME280;49583;45.590;-122.498;2022-08-19T06:59:54;100765.98;;;24.94;63.87
50632;BME280;49583;45.590;-122.498;2022-08-19T07:02:05;100763.84;;;24.92;63.85
50632;BME280;49583;45.590;-122.498;2022-08-19T07:04:27;100764.05;;;24.91;63.97
50632;BME280;49583;45.590;-122.498;2022-08-19T07:06:35;100760.45;;;24.90;64.07
50632;BME280;49583;45.590;-122.498;2022-08-19T07:08:59;100760.70;;;24.89;64.25
50632;BME280;49583;45.590;-122.498;2022-08-19T07:11:33;100761.77;;;24.88;64.27
50632;BME280;49583;45.590;-122.498;2022-08-19T07:13:39;100764.58;;;24.88;64.37
50632;BME280;49583;45.590;-122.498;2022-08-19T07:15:49;100765.23;;;24.88;64.37
50632;BME280;49583;45.590;-122.498;2022-08-19T07:17:56;100764.42;;;24.88;64.52
50632;BME280;49583;45.590;-122.498;2022-08-19T07:20:07;100770.27;;;24.88;64.39
50632;BME280;49583;45.590;-122.498;2022-08-19T07:22:16;100764.60;;;24.88;64.48
50632;BME280;49583;45.590;-122.498;2022-08-19T07:24:28;100763.80;;;24.88;64.54
50632;BME280;49583;45.590;-122.498;2022-08-19T07:26:42;100763.28;;;24.86;64.47
50632;BME280;49583;45.590;-122.498;2022-08-19T07:28:50;100763.10;;;24.85;64.58
50632;BME280;49583;45.590;-122.498;2022-08-19T07:31:06;100762.51;;;24.84;64.56
50632;BME280;49583;45.590;-122.498;2022-08-19T07:33:15;100762.86;;;24.83;64.57
50632;BME280;49583;45.590;-122.498;2022-08-19T07:35:22;100763.70;;;24.82;64.66
50632;BME280;49583;45.590;-122.498;2022-08-19T07:37:33;100765.30;;;24.81;64.57
50632;BME280;49583;45.590;-122.498;2022-08-19T07:39:41;100768.14;;;24.81;64.80
50632;BME280;49583;45.590;-122.498;2022-08-19T07:41:52;100769.92;;;24.80;64.79
50632;BME280;49583;45.590;-122.498;2022-08-19T07:44:28;100774.30;;;24.78;64.76
50632;BME280;49583;45.590;-122.498;2022-08-19T07:46:37;100773.86;;;24.77;64.89
50632;BME280;49583;45.590;-122.498;2022-08-19T07:48:45;100776.16;;;24.76;64.97
50632;BME280;49583;45.590;-122.498;2022-08-19T07:50:58;100779.73;;;24.74;65.03
50632;BME280;49583;45.590;-122.498;2022-08-19T07:53:07;100778.36;;;24.72;65.07
50632;BME280;49583;45.590;-122.498;2022-08-19T07:55:27;100778.71;;;24.69;65.04
50632;BME280;49583;45.590;-122.498;2022-08-19T07:57:47;100778.02;;;24.66;65.17
50632;BME280;49583;45.590;-122.498;2022-08-19T07:59:54;100774.65;;;24.64;65.30
50632;BME280;49583;45.590;-122.498;2022-08-19T08:02:02;100775.02;;;24.63;65.35
50632;BME280;49583;45.590;-122.498;2022-08-19T08:04:12;100777.25;;;24.61;65.36
50632;BME280;49583;45.590;-122.498;2022-08-19T08:06:37;100769.64;;;24.59;65.44
50632;BME280;49583;45.590;-122.498;2022-08-19T08:09:05;100772.16;;;24.58;65.49
50632;BME280;49583;45.590;-122.498;2022-08-19T08:11:26;100769.98;;;24.56;65.44
50632;BME280;49583;45.590;-122.498;2022-08-19T08:13:34;100774.72;;;24.55;65.46
50632;BME280;49583;45.590;-122.498;2022-08-19T08:15:56;100772.52;;;24.54;65.46
50632;BME280;49583;45.590;-122.498;2022-08-19T08:18:03;100770.59;;;24.52;65.51
50632;BME280;49583;45.590;-122.498;2022-08-19T08:20:14;100771.71;;;24.52;65.41
50632;BME280;49583;45.590;-122.498;2022-08-19T08:22:22;100772.55;;;24.51;65.42
50632;BME280;49583;45.590;-122.498;2022-08-19T08:24:48;100771.54;;;24.50;65.41
50632;BME280;49583;45.590;-122.498;2022-08-19T08:26:59;100771.18;;;24.49;65.44
50632;BME280;49583;45.590;-122.498;2022-08-19T08:29:18;100769.64;;;24.47;65.42
50632;BME280;49583;45.590;-122.498;2022-08-19T08:31:25;100769.50;;;24.44;65.38
50632;BME280;49583;45.590;-122.498;2022-08-19T08:33:32;100769.77;;;24.44;65.41
50632;BME280;49583;45.590;-122.498;2022-08-19T08:35:40;100771.50;;;24.42;65.50
50632;BME280;49583;45.590;-122.498;2022-08-19T08:37:57;100776.60;;;24.40;65.57
50632;BME280;49583;45.590;-122.498;2022-08-19T08:42:45;100781.64;;;24.36;65.58
50632;BME280;49583;45.590;-122.498;2022-08-19T08:45:32;100791.75;;;24.34;65.66
50632;BME280;49583;45.590;-122.498;2022-08-19T08:47:50;100791.14;;;24.31;65.79
50632;BME280;49583;45.590;-122.498;2022-08-19T08:50:13;100791.46;;;24.29;65.86
50632;BME280;49583;45.590;-122.498;2022-08-19T08:52:47;100790.17;;;24.27;65.93
50632;BME280;49583;45.590;-122.498;2022-08-19T08:55:19;100787.83;;;24.25;66.00
50632;BME280;49583;45.590;-122.498;2022-08-19T08:59:57;100786.58;;;24.22;66.05
50632;BME280;49583;45.590;-122.498;2022-08-19T09:02:29;100787.01;;;24.22;66.02
50632;BME280;49583;45.590;-122.498;2022-08-19T09:04:51;100787.73;;;24.20;66.06
50632;BME280;49583;45.590;-122.498;2022-08-19T09:09:48;100793.48;;;24.17;66.15
50632;BME280;49583;45.590;-122.498;2022-08-19T09:12:08;100794.19;;;24.16;66.13
50632;BME280;49583;45.590;-122.498;2022-08-19T09:17:50;100801.08;;;24.12;66.31
50632;BME280;49583;45.590;-122.498;2022-08-19T09:20:08;100804.48;;;24.11;66.44
50632;BME280;49583;45.590;-122.498;2022-08-19T09:22:22;100805.96;;;24.09;66.42
50632;BME280;49583;45.590;-122.498;2022-08-19T09:24:31;100809.90;;;24.07;66.47
50632;BME280;49583;45.590;-122.498;2022-08-19T09:26:38;100811.58;;;24.04;66.55
50632;BME280;49583;45.590;-122.498;2022-08-19T09:28:59;100815.42;;;24.02;66.70
50632;BME280;49583;45.590;-122.498;2022-08-19T09:31:19;100816.20;;;23.98;66.73
50632;BME280;49583;45.590;-122.498;2022-08-19T09:33:29;100811.23;;;23.93;66.82
50632;BME280;49583;45.590;-122.498;2022-08-19T09:35:37;100813.58;;;23.89;66.91
50632;BME280;49583;45.590;-122.498;2022-08-19T09:37:58;100814.86;;;23.86;67.19
50632;BME280;49583;45.590;-122.498;2022-08-19T09:43:07;100823.81;;;23.81;67.51
50632;BME280;49583;45.590;-122.498;2022-08-19T09:45:19;100825.22;;;23.79;67.59
50632;BME280;49583;45.590;-122.498;2022-08-19T09:47:28;100825.31;;;23.77;67.60
50632;BME280;49583;45.590;-122.498;2022-08-19T09:49:45;100830.25;;;23.74;67.69
50632;BME280;49583;45.590;-122.498;2022-08-19T09:52:05;100823.41;;;23.70;67.87
50632;BME280;49583;45.590;-122.498;2022-08-19T09:54:18;100819.30;;;23.67;68.09
50632;BME280;49583;45.590;-122.498;2022-08-19T09:56:39;100825.67;;;23.65;68.14
50632;BME280;49583;45.590;-122.498;2022-08-19T09:59:01;100819.80;;;23.61;68.11
50632;BME280;49583;45.590;-122.498;2022-08-19T10:01:25;100825.98;;;23.60;68.06
50632;BME280;49583;45.590;-122.498;2022-08-19T10:06:05;100829.73;;;23.57;68.10
50632;BME280;49583;45.590;-122.498;2022-08-19T10:08:26;100829.06;;;23.56;68.28
50632;BME280;49583;45.590;-122.498;2022-08-19T10:10:43;100833.01;;;23.54;68.39
50632;BME280;49583;45.590;-122.498;2022-08-19T10:12:57;100835.50;;;23.52;68.55
50632;BME280;49583;45.590;-122.498;2022-08-19T10:15:28;100848.08;;;23.50;68.69
50632;BME280;49583;45.590;-122.498;2022-08-19T10:18:03;100855.57;;;23.47;68.62
50632;BME280;49583;45.590;-122.498;2022-08-19T10:20:20;100859.66;;;23.43;68.60
50632;BME280;49583;45.590;-122.498;2022-08-19T10:22:31;100864.59;;;23.41;68.24
50632;BME280;49583;45.590;-122.498;2022-08-19T10:24:55;100867.48;;;23.38;68.10
50632;BME280;49583;45.590;-122.498;2022-08-19T10:27:02;100866.82;;;23.36;67.81
50632;BME280;49583;45.590;-122.498;2022-08-19T10:29:40;100873.27;;;23.33;67.52
50632;BME280;49583;45.590;-122.498;2022-08-19T10:31:58;100873.98;;;23.31;67.28
50632;BME280;49583;45.590;-122.498;2022-08-19T10:34:49;100877.56;;;23.28;67.21
50632;BME280;49583;45.590;-122.498;2022-08-19T10:37:07;100886.02;;;23.26;66.88
50632;BME280;49583;45.590;-122.498;2022-08-19T10:39:21;100889.73;;;23.24;66.66
50632;BME280;49583;45.590;-122.498;2022-08-19T10:41:56;100890.27;;;23.23;66.25
50632;BME280;49583;45.590;-122.498;2022-08-19T10:44:13;100886.31;;;23.22;66.17
50632;BME280;49583;45.590;-122.498;2022-08-19T10:46:26;100887.60;;;23.21;66.08
50632;BME280;49583;45.590;-122.498;2022-08-19T10:48:40;100887.69;;;23.21;65.96
50632;BME280;49583;45.590;-122.498;2022-08-19T10:50:47;100892.11;;;23.19;65.88
50632;BME280;49583;45.590;-122.498;2022-08-19T10:53:33;100891.39;;;23.16;65.96
50632;BME280;49583;45.590;-122.498;2022-08-19T10:55:40;100894.91;;;23.13;65.75
50632;BME280;49583;45.590;-122.498;2022-08-19T10:58:16;100895.94;;;23.10;65.57
50632;BME280;49583;45.590;-122.498;2022-08-19T11:00:26;100899.67;;;23.08;65.37
50632;BME280;49583;45.590;-122.498;2022-08-19T11:02:34;100898.35;;;23.07;65.39
50632;BME280;49583;45.590;-122.498;2022-08-19T11:05:01;100899.48;;;23.06;65.41
50632;BME280;49583;45.590;-122.498;2022-08-19T11:07:20;100903.17;;;23.06;65.24
50632;BME280;49583;45.590;-122.498;2022-08-19T11:09:42;100903.84;;;23.05;65.10
50632;BME280;49583;45.590;-122.498;2022-08-19T11:11:50;100900.95;;;23.01;64.74
50632;BME280;49583;45.590;-122.498;2022-08-19T11:13:59;100901.83;;;22.99;64.64
50632;BME280;49583;45.590;-122.498;2022-08-19T11:16:19;100906.66;;;22.97;64.68
50632;BME280;49583;45.590;-122.498;2022-08-19T11:18:27;100909.60;;;22.98;64.60
50632;BME280;49583;45.590;-122.498;2022-08-19T11:21:48;100907.53;;;22.97;64.46
50632;BME280;49583;45.590;-122.498;2022-08-19T11:23:40;100904.17;;;22.92;64.21
50632;BME280;49583;45.590;-122.498;2022-08-19T11:26:08;100910.96;;;22.91;64.39
50632;BME280;49583;45.590;-122.498;2022-08-19T11:28:19;100915.80;;;22.90;64.20
50632;BME280;49583;45.590;-122.498;2022-08-19T11:30:42;100918.06;;;22.85;63.97
50632;BME280;49583;45.590;-122.498;2022-08-19T11:33:13;100918.83;;;22.81;64.06
50632;BME280;49583;45.590;-122.498;2022-08-19T11:35:25;100919.39;;;22.77;64.03
50632;BME280;49583;45.590;-122.498;2022-08-19T11:37:50;100925.69;;;22.73;64.14
50632;BME280;49583;45.590;-122.498;2022-08-19T11:40:00;100926.84;;;22.68;63.90
50632;BME280;49583;45.590;-122.498;2022-08-19T11:42:17;100926.02;;;22.62;63.96
50632;BME280;49583;45.590;-122.498;2022-08-19T11:44:43;100929.73;;;22.57;63.76
50632;BME280;49583;45.590;-122.498;2022-08-19T11:47:20;100932.27;;;22.51;63.66
50632;BME280;49583;45.590;-122.498;2022-08-19T11:49:35;100933.75;;;22.45;63.69
50632;BME280;49583;45.590;-122.498;2022-08-19T11:51:46;100936.66;;;22.41;63.69
50632;BME280;49583;45.590;-122.498;2022-08-19T11:54:11;100937.98;;;22.36;63.75
50632;BME280;49583;45.590;-122.498;2022-08-19T11:56:26;100940.63;;;22.31;63.67
50632;BME280;49583;45.590;-122.498;2022-08-19T11:58:34;100948.38;;;22.27;63.50
50632;BME280;49583;45.590;-122.498;2022-08-19T12:01:10;100953.20;;;22.24;63.65
50632;BME280;49583;45.590;-122.498;2022-08-19T12:03:32;100951.95;;;22.20;63.71
50632;BME280;49583;45.590;-122.498;2022-08-19T12:05:53;100955.55;;;22.16;63.67
50632;BME280;49583;45.590;-122.498;2022-08-19T12:08:04;100954.00;;;22.10;63.54
50632;BME280;49583;45.590;-122.498;2022-08-19T12:10:32;100952.31;;;22.03;63.56
50632;BME280;49583;45.590;-122.498;2022-08-19T12:12:39;100956.69;;;22.00;63.58
50632;BME280;49583;45.590;-122.498;2022-08-19T12:14:51;100954.92;;;21.96;63.66
50632;BME280;49583;45.590;-122.498;2022-08-19T12:17:11;100957.56;;;21.92;63.50
50632;BME280;49583;45.590;-122.498;2022-08-19T12:19:23;100960.59;;;21.88;63.67
50632;BME280;49583;45.590;-122.498;2022-08-19T12:21:50;100967.20;;;21.83;63.54
50632;BME280;49583;45.590;-122.498;2022-08-19T12:24:13;100968.06;;;21.81;63.92
50632;BME280;49583;45.590;-122.498;2022-08-19T12:26:50;100972.29;;;21.76;63.84
50632;BME280;49583;45.590;-122.498;2022-08-19T12:31:46;100970.30;;;21.64;63.81
50632;BME280;49583;45.590;-122.498;2022-08-19T12:34:03;100971.89;;;21.60;63.97
50632;BME280;49583;45.590;-122.498;2022-08-19T12:36:12;100971.20;;;21.59;64.06
50632;BME280;49583;45.590;-122.498;2022-08-19T12:38:40;100970.33;;;21.54;63.94
50632;BME280;49583;45.590;-122.498;2022-08-19T12:40:50;100973.69;;;21.49;64.06
50632;BME280;49583;45.590;-122.498;2022-08-19T12:43:10;100978.66;;;21.43;64.09
50632;BME280;49583;45.590;-122.498;2022-08-19T12:45:21;100976.27;;;21.38;64.10
50632;BME280;49583;45.590;-122.498;2022-08-19T12:47:45;100976.09;;;21.36;64.15
50632;BME280;49583;45.590;-122.498;2022-08-19T12:49:54;100977.22;;;21.35;64.30
50632;BME280;49583;45.590;-122.498;2022-08-19T12:52:04;100982.02;;;21.33;64.46